Progreso Lakes, Texas
Current Conditions -  °F | °C
As of 8:15 PM on Saturday 22 Nov 2014 (Local Time) from KT65 Reporting Station
Moderate Rain Moderate Rain  
Wind Chill: 73°   Ceiling: 5000
Heat Index: 73°   Visibility: 7mi
Dew Point: 67°   Wind: 6mph
Humidity: 83%   Direction: 280°W
Pressure: 29.79"   Gusts: NA
Location:  26.1701°N, 97.9943°W
Report Text: KT65 230215Z AUTO 28005KT 7SM RA SCT016 OVC050 23/20 A2979 RMK AO2 LTG DSNT N AND NE T02250195
Loading
Personal Weather Stations






























Interactive Weather Map New forecast layout! Learn more

10-Day Weather Forecast

Advertisements
Track Severe Weather on mobile